Forside
METAR-TAF:

METAR-TAF

Lufthavne :

Tri-Township Airport

Savanna, Illinois, USA

Breddekreds: 42-02-45N, længdekreds: 090-06-28W, højde: 188 m

Aktuelle vejr

Denne rapport blev lavet for 26 minutter siden, kl. 23:15 UTC
Vind stille
Temperatur 31°C
Fugtighed 52%
Tryk 1015 hPa
Sigt: 16.1 km
skyfri

METAR: KSFY 042315Z AUTO 00000KT 10SM CLR 31/20 A2998 RMK AO2

Tid: 18:41 (23:41 UTC)


TAF: fraværende

Vejrobservationer og prognoser fra mere end 4000 lufthavne (METAR og TAF).

De gule og røde prikker repræsenterer de meteorologiske stationer.

Flyt musen over at se navnet på stationen.

Så klik over at se vejr observationer og prognoser.

At skifte det kort: Klik på de grønne knapper med et sort kors for at zoome ind; på den grønne knap med en bindestreg for at zoome ud; eller på de grønne pile for tilstødende kort.


METAR-TAF: